sensor_id;sensor_type;location;lat;lon;timestamp;temperature;humidity
12156;DHT22;6141;49.092;8.516;2023-08-20T00:01:12;25.90;54.30
12156;DHT22;6141;49.092;8.516;2023-08-20T00:03:42;26.10;53.10
12156;DHT22;6141;49.092;8.516;2023-08-20T00:06:14;26.10;52.90
12156;DHT22;6141;49.092;8.516;2023-08-20T00:08:43;25.80;53.60
12156;DHT22;6141;49.092;8.516;2023-08-20T00:11:12;25.80;54.10
12156;DHT22;6141;49.092;8.516;2023-08-20T00:13:40;25.50;55.00
12156;DHT22;6141;49.092;8.516;2023-08-20T00:16:09;25.70;54.10
12156;DHT22;6141;49.092;8.516;2023-08-20T00:18:38;25.80;52.30
12156;DHT22;6141;49.092;8.516;2023-08-20T00:21:07;26.10;51.10
12156;DHT22;6141;49.092;8.516;2023-08-20T00:23:38;26.10;50.40
12156;DHT22;6141;49.092;8.516;2023-08-20T00:26:06;26.20;50.30
12156;DHT22;6141;49.092;8.516;2023-08-20T00:28:34;26.00;50.20
12156;DHT22;6141;49.092;8.516;2023-08-20T00:31:05;25.90;50.70
12156;DHT22;6141;49.092;8.516;2023-08-20T00:33:33;25.80;51.80
12156;DHT22;6141;49.092;8.516;2023-08-20T00:36:02;25.50;53.10
12156;DHT22;6141;49.092;8.516;2023-08-20T00:38:31;25.50;53.70
12156;DHT22;6141;49.092;8.516;2023-08-20T00:41:02;25.80;51.40
12156;DHT22;6141;49.092;8.516;2023-08-20T00:43:31;25.70;51.30
12156;DHT22;6141;49.092;8.516;2023-08-20T00:46:00;25.70;51.20
12156;DHT22;6141;49.092;8.516;2023-08-20T00:48:28;25.90;50.20
12156;DHT22;6141;49.092;8.516;2023-08-20T00:50:56;25.90;50.00
12156;DHT22;6141;49.092;8.516;2023-08-20T00:53:25;25.90;49.30
12156;DHT22;6141;49.092;8.516;2023-08-20T00:55:54;25.90;49.70
12156;DHT22;6141;49.092;8.516;2023-08-20T00:58:24;25.90;49.70
12156;DHT22;6141;49.092;8.516;2023-08-20T01:00:52;25.60;50.60
12156;DHT22;6141;49.092;8.516;2023-08-20T01:03:20;25.50;52.60
12156;DHT22;6141;49.092;8.516;2023-08-20T01:05:56;25.50;51.90
12156;DHT22;6141;49.092;8.516;2023-08-20T01:08:32;25.80;50.30
12156;DHT22;6141;49.092;8.516;2023-08-20T01:11:09;25.60;51.40
12156;DHT22;6141;49.092;8.516;2023-08-20T01:13:40;25.70;50.50
12156;DHT22;6141;49.092;8.516;2023-08-20T01:16:08;25.50;50.60
12156;DHT22;6141;49.092;8.516;2023-08-20T01:18:37;24.90;53.50
12156;DHT22;6141;49.092;8.516;2023-08-20T01:21:15;25.10;52.20
12156;DHT22;6141;49.092;8.516;2023-08-20T01:24:04;25.20;51.70
12156;DHT22;6141;49.092;8.516;2023-08-20T01:26:49;25.40;50.10
12156;DHT22;6141;49.092;8.516;2023-08-20T01:29:24;25.50;49.90
12156;DHT22;6141;49.092;8.516;2023-08-20T01:31:53;25.50;50.30
12156;DHT22;6141;49.092;8.516;2023-08-20T01:34:22;25.40;50.70
12156;DHT22;6141;49.092;8.516;2023-08-20T01:36:50;25.40;50.30
12156;DHT22;6141;49.092;8.516;2023-08-20T01:39:19;25.40;49.30
12156;DHT22;6141;49.092;8.516;2023-08-20T01:41:46;25.00;52.30
12156;DHT22;6141;49.092;8.516;2023-08-20T01:44:15;24.70;53.30
12156;DHT22;6141;49.092;8.516;2023-08-20T01:46:44;24.80;52.90
12156;DHT22;6141;49.092;8.516;2023-08-20T01:49:13;25.10;50.70
12156;DHT22;6141;49.092;8.516;2023-08-20T01:51:42;25.30;49.30
12156;DHT22;6141;49.092;8.516;2023-08-20T01:54:10;25.10;50.30
12156;DHT22;6141;49.092;8.516;2023-08-20T01:56:38;25.40;49.40
12156;DHT22;6141;49.092;8.516;2023-08-20T01:59:07;25.20;48.70
12156;DHT22;6141;49.092;8.516;2023-08-20T02:01:35;25.00;49.30
12156;DHT22;6141;49.092;8.516;2023-08-20T02:04:04;25.00;48.80
12156;DHT22;6141;49.092;8.516;2023-08-20T02:06:32;24.60;51.20
12156;DHT22;6141;49.092;8.516;2023-08-20T02:09:00;24.30;52.50
12156;DHT22;6141;49.092;8.516;2023-08-20T02:11:29;24.60;51.90
12156;DHT22;6141;49.092;8.516;2023-08-20T02:14:02;24.70;50.70
12156;DHT22;6141;49.092;8.516;2023-08-20T02:16:30;24.80;50.10
12156;DHT22;6141;49.092;8.516;2023-08-20T02:18:59;24.80;50.90
12156;DHT22;6141;49.092;8.516;2023-08-20T02:21:30;24.70;51.70
12156;DHT22;6141;49.092;8.516;2023-08-20T02:23:59;24.70;51.70
12156;DHT22;6141;49.092;8.516;2023-08-20T02:26:27;24.80;50.80
12156;DHT22;6141;49.092;8.516;2023-08-20T02:28:55;24.90;50.30
12156;DHT22;6141;49.092;8.516;2023-08-20T02:31:23;24.80;49.60
12156;DHT22;6141;49.092;8.516;2023-08-20T02:33:52;24.90;49.00
12156;DHT22;6141;49.092;8.516;2023-08-20T02:36:20;25.10;48.40
12156;DHT22;6141;49.092;8.516;2023-08-20T02:38:50;25.00;47.20
12156;DHT22;6141;49.092;8.516;2023-08-20T02:41:18;24.90;48.60
12156;DHT22;6141;49.092;8.516;2023-08-20T02:43:47;25.00;47.20
12156;DHT22;6141;49.092;8.516;2023-08-20T02:46:15;25.20;46.50
12156;DHT22;6141;49.092;8.516;2023-08-20T02:48:43;25.10;47.30
12156;DHT22;6141;49.092;8.516;2023-08-20T02:51:11;24.80;47.50
12156;DHT22;6141;49.092;8.516;2023-08-20T02:53:39;24.50;48.30
12156;DHT22;6141;49.092;8.516;2023-08-20T02:56:09;24.50;49.20
12156;DHT22;6141;49.092;8.516;2023-08-20T02:58:37;24.50;48.80
12156;DHT22;6141;49.092;8.516;2023-08-20T03:01:05;24.50;48.90
12156;DHT22;6141;49.092;8.516;2023-08-20T03:03:33;24.60;48.20
12156;DHT22;6141;49.092;8.516;2023-08-20T03:06:01;24.90;47.10
12156;DHT22;6141;49.092;8.516;2023-08-20T03:08:29;25.10;46.10
12156;DHT22;6141;49.092;8.516;2023-08-20T03:10:57;25.20;45.60
12156;DHT22;6141;49.092;8.516;2023-08-20T03:13:27;25.20;45.50
12156;DHT22;6141;49.092;8.516;2023-08-20T03:15:55;25.10;46.80
12156;DHT22;6141;49.092;8.516;2023-08-20T03:18:24;24.80;47.00
12156;DHT22;6141;49.092;8.516;2023-08-20T03:20:52;24.70;46.70
12156;DHT22;6141;49.092;8.516;2023-08-20T03:23:21;24.40;47.70
12156;DHT22;6141;49.092;8.516;2023-08-20T03:25:50;24.50;47.40
12156;DHT22;6141;49.092;8.516;2023-08-20T03:28:19;24.40;48.40
12156;DHT22;6141;49.092;8.516;2023-08-20T03:30:48;24.50;47.30
12156;DHT22;6141;49.092;8.516;2023-08-20T03:33:20;24.70;47.00
12156;DHT22;6141;49.092;8.516;2023-08-20T03:35:48;24.90;47.10
12156;DHT22;6141;49.092;8.516;2023-08-20T03:38:17;25.00;47.20
12156;DHT22;6141;49.092;8.516;2023-08-20T03:40:46;25.10;47.30
12156;DHT22;6141;49.092;8.516;2023-08-20T03:43:15;25.10;46.20
12156;DHT22;6141;49.092;8.516;2023-08-20T03:45:44;25.10;43.60
12156;DHT22;6141;49.092;8.516;2023-08-20T03:48:13;24.70;44.70
12156;DHT22;6141;49.092;8.516;2023-08-20T03:50:41;24.30;47.00
12156;DHT22;6141;49.092;8.516;2023-08-20T03:53:09;23.80;50.20
12156;DHT22;6141;49.092;8.516;2023-08-20T03:55:37;23.70;51.10
12156;DHT22;6141;49.092;8.516;2023-08-20T03:58:05;23.80;50.70
12156;DHT22;6141;49.092;8.516;2023-08-20T04:00:34;24.10;49.00
12156;DHT22;6141;49.092;8.516;2023-08-20T04:03:03;24.10;49.20
12156;DHT22;6141;49.092;8.516;2023-08-20T04:05:37;23.90;48.80
12156;DHT22;6141;49.092;8.516;2023-08-20T04:08:06;23.80;48.50
12156;DHT22;6141;49.092;8.516;2023-08-20T04:10:34;23.80;48.20
12156;DHT22;6141;49.092;8.516;2023-08-20T04:13:06;23.50;49.60
12156;DHT22;6141;49.092;8.516;2023-08-20T04:15:34;23.50;50.20
12156;DHT22;6141;49.092;8.516;2023-08-20T04:18:02;23.70;48.80
12156;DHT22;6141;49.092;8.516;2023-08-20T04:20:31;23.70;49.20
12156;DHT22;6141;49.092;8.516;2023-08-20T04:23:03;23.90;49.30
12156;DHT22;6141;49.092;8.516;2023-08-20T04:25:31;24.10;48.50
12156;DHT22;6141;49.092;8.516;2023-08-20T04:27:59;24.10;48.00
12156;DHT22;6141;49.092;8.516;2023-08-20T04:30:28;23.60;50.20
12156;DHT22;6141;49.092;8.516;2023-08-20T04:32:58;23.60;49.90
12156;DHT22;6141;49.092;8.516;2023-08-20T04:35:27;23.70;49.60
12156;DHT22;6141;49.092;8.516;2023-08-20T04:37:56;23.90;48.30
12156;DHT22;6141;49.092;8.516;2023-08-20T04:40:27;24.00;48.00
12156;DHT22;6141;49.092;8.516;2023-08-20T04:42:57;24.10;49.00
12156;DHT22;6141;49.092;8.516;2023-08-20T04:45:27;24.20;48.40
12156;DHT22;6141;49.092;8.516;2023-08-20T04:47:56;24.30;48.70
12156;DHT22;6141;49.092;8.516;2023-08-20T04:50:25;24.10;50.40
12156;DHT22;6141;49.092;8.516;2023-08-20T04:52:53;23.40;52.50
12156;DHT22;6141;49.092;8.516;2023-08-20T04:55:22;23.50;52.60
12156;DHT22;6141;49.092;8.516;2023-08-20T04:57:51;23.60;53.30
12156;DHT22;6141;49.092;8.516;2023-08-20T05:00:21;23.80;52.40
12156;DHT22;6141;49.092;8.516;2023-08-20T05:02:52;24.00;50.20
12156;DHT22;6141;49.092;8.516;2023-08-20T05:05:24;24.10;50.60
12156;DHT22;6141;49.092;8.516;2023-08-20T05:07:52;24.00;50.50
12156;DHT22;6141;49.092;8.516;2023-08-20T05:10:20;24.10;50.40
12156;DHT22;6141;49.092;8.516;2023-08-20T05:12:48;24.10;50.60
12156;DHT22;6141;49.092;8.516;2023-08-20T05:15:18;24.10;50.00
12156;DHT22;6141;49.092;8.516;2023-08-20T05:17:46;23.70;53.10
12156;DHT22;6141;49.092;8.516;2023-08-20T05:20:14;23.30;55.70
12156;DHT22;6141;49.092;8.516;2023-08-20T05:22:43;23.40;55.50
12156;DHT22;6141;49.092;8.516;2023-08-20T05:25:11;23.80;53.70
12156;DHT22;6141;49.092;8.516;2023-08-20T05:27:41;23.90;52.50
12156;DHT22;6141;49.092;8.516;2023-08-20T05:30:10;24.10;52.70
12156;DHT22;6141;49.092;8.516;2023-08-20T05:32:39;24.10;52.70
12156;DHT22;6141;49.092;8.516;2023-08-20T05:35:08;24.10;52.70
12156;DHT22;6141;49.092;8.516;2023-08-20T05:37:37;23.90;54.80
12156;DHT22;6141;49.092;8.516;2023-08-20T05:40:06;23.70;56.50
12156;DHT22;6141;49.092;8.516;2023-08-20T05:42:35;23.90;56.60
12156;DHT22;6141;49.092;8.516;2023-08-20T05:45:06;23.90;57.50
12156;DHT22;6141;49.092;8.516;2023-08-20T05:47:35;24.10;56.30
12156;DHT22;6141;49.092;8.516;2023-08-20T05:50:06;24.40;54.20
12156;DHT22;6141;49.092;8.516;2023-08-20T05:52:34;24.70;53.30
12156;DHT22;6141;49.092;8.516;2023-08-20T05:55:04;25.00;51.70
12156;DHT22;6141;49.092;8.516;2023-08-20T05:57:33;25.10;50.80
12156;DHT22;6141;49.092;8.516;2023-08-20T06:00:06;25.20;50.50
12156;DHT22;6141;49.092;8.516;2023-08-20T06:02:38;25.30;50.60
12156;DHT22;6141;49.092;8.516;2023-08-20T06:05:10;25.20;50.80
12156;DHT22;6141;49.092;8.516;2023-08-20T06:07:38;25.30;52.10
12156;DHT22;6141;49.092;8.516;2023-08-20T06:10:07;25.20;52.20
12156;DHT22;6141;49.092;8.516;2023-08-20T06:12:35;25.20;51.30
12156;DHT22;6141;49.092;8.516;2023-08-20T06:15:06;25.10;53.60
12156;DHT22;6141;49.092;8.516;2023-08-20T06:17:34;25.20;53.60
12156;DHT22;6141;49.092;8.516;2023-08-20T06:20:03;25.30;52.70
12156;DHT22;6141;49.092;8.516;2023-08-20T06:22:35;25.30;52.20
12156;DHT22;6141;49.092;8.516;2023-08-20T06:25:04;25.40;51.10
12156;DHT22;6141;49.092;8.516;2023-08-20T06:27:33;25.50;50.00
12156;DHT22;6141;49.092;8.516;2023-08-20T06:30:03;25.70;48.20
12156;DHT22;6141;49.092;8.516;2023-08-20T06:32:32;25.80;47.90
12156;DHT22;6141;49.092;8.516;2023-08-20T06:35:00;25.80;48.50
12156;DHT22;6141;49.092;8.516;2023-08-20T06:37:28;25.80;48.60
12156;DHT22;6141;49.092;8.516;2023-08-20T06:39:58;25.70;48.60
12156;DHT22;6141;49.092;8.516;2023-08-20T06:42:25;25.70;47.70
12156;DHT22;6141;49.092;8.516;2023-08-20T06:44:54;25.70;48.10
12156;DHT22;6141;49.092;8.516;2023-08-20T06:47:22;25.90;48.70
12156;DHT22;6141;49.092;8.516;2023-08-20T06:49:50;25.80;49.60
12156;DHT22;6141;49.092;8.516;2023-08-20T06:52:18;25.70;50.60
12156;DHT22;6141;49.092;8.516;2023-08-20T06:54:46;25.80;50.50
12156;DHT22;6141;49.092;8.516;2023-08-20T06:57:15;26.10;48.10
12156;DHT22;6141;49.092;8.516;2023-08-20T06:59:44;26.20;48.00
12156;DHT22;6141;49.092;8.516;2023-08-20T07:02:12;26.20;47.50
12156;DHT22;6141;49.092;8.516;2023-08-20T07:04:40;26.20;48.10
12156;DHT22;6141;49.092;8.516;2023-08-20T07:07:08;26.10;48.10
12156;DHT22;6141;49.092;8.516;2023-08-20T07:09:36;26.00;48.40
12156;DHT22;6141;49.092;8.516;2023-08-20T07:12:05;26.20;48.10
12156;DHT22;6141;49.092;8.516;2023-08-20T07:14:34;26.40;48.30
12156;DHT22;6141;49.092;8.516;2023-08-20T07:17:03;26.50;46.70
12156;DHT22;6141;49.092;8.516;2023-08-20T07:19:32;26.50;47.50
12156;DHT22;6141;49.092;8.516;2023-08-20T07:22:00;26.80;46.90
12156;DHT22;6141;49.092;8.516;2023-08-20T07:24:28;27.00;45.50
12156;DHT22;6141;49.092;8.516;2023-08-20T07:26:56;27.30;42.90
12156;DHT22;6141;49.092;8.516;2023-08-20T07:29:28;27.40;42.60
12156;DHT22;6141;49.092;8.516;2023-08-20T07:31:58;27.60;42.70
12156;DHT22;6141;49.092;8.516;2023-08-20T07:34:30;27.80;41.00
12156;DHT22;6141;49.092;8.516;2023-08-20T07:37:00;27.80;40.10
12156;DHT22;6141;49.092;8.516;2023-08-20T07:39:28;28.00;40.00
12156;DHT22;6141;49.092;8.516;2023-08-20T07:41:56;28.20;39.30
12156;DHT22;6141;49.092;8.516;2023-08-20T07:44:24;28.30;39.40
12156;DHT22;6141;49.092;8.516;2023-08-20T07:46:55;28.10;39.90
12156;DHT22;6141;49.092;8.516;2023-08-20T07:49:24;28.40;38.70
12156;DHT22;6141;49.092;8.516;2023-08-20T07:51:52;28.60;38.40
12156;DHT22;6141;49.092;8.516;2023-08-20T07:54:21;28.50;37.20
12156;DHT22;6141;49.092;8.516;2023-08-20T07:56:49;28.60;38.50
12156;DHT22;6141;49.092;8.516;2023-08-20T07:59:17;28.80;37.00
12156;DHT22;6141;49.092;8.516;2023-08-20T08:01:45;28.90;37.10
12156;DHT22;6141;49.092;8.516;2023-08-20T08:04:13;29.10;35.50
12156;DHT22;6141;49.092;8.516;2023-08-20T08:06:42;29.10;34.80
12156;DHT22;6141;49.092;8.516;2023-08-20T08:09:21;29.20;35.30
12156;DHT22;6141;49.092;8.516;2023-08-20T08:11:49;29.30;35.90
12156;DHT22;6141;49.092;8.516;2023-08-20T08:14:17;29.40;34.50
12156;DHT22;6141;49.092;8.516;2023-08-20T08:16:46;29.40;33.40
12156;DHT22;6141;49.092;8.516;2023-08-20T08:19:14;29.60;33.30
12156;DHT22;6141;49.092;8.516;2023-08-20T08:21:44;29.70;31.00
12156;DHT22;6141;49.092;8.516;2023-08-20T08:24:13;29.70;30.80
12156;DHT22;6141;49.092;8.516;2023-08-20T08:26:42;29.60;30.90
12156;DHT22;6141;49.092;8.516;2023-08-20T08:29:10;29.40;31.70
12156;DHT22;6141;49.092;8.516;2023-08-20T08:31:38;29.50;34.00
12156;DHT22;6141;49.092;8.516;2023-08-20T08:34:06;29.60;33.70
12156;DHT22;6141;49.092;8.516;2023-08-20T08:36:34;29.90;33.00
12156;DHT22;6141;49.092;8.516;2023-08-20T08:39:05;29.90;32.30
12156;DHT22;6141;49.092;8.516;2023-08-20T08:41:37;30.00;31.30
12156;DHT22;6141;49.092;8.516;2023-08-20T08:44:06;30.20;29.00
12156;DHT22;6141;49.092;8.516;2023-08-20T08:46:38;30.30;29.40
12156;DHT22;6141;49.092;8.516;2023-08-20T08:49:06;30.00;30.10
12156;DHT22;6141;49.092;8.516;2023-08-20T08:51:36;30.20;29.50
12156;DHT22;6141;49.092;8.516;2023-08-20T08:54:07;30.20;29.30
12156;DHT22;6141;49.092;8.516;2023-08-20T08:56:37;29.80;31.10
12156;DHT22;6141;49.092;8.516;2023-08-20T08:59:05;30.10;30.20
12156;DHT22;6141;49.092;8.516;2023-08-20T09:01:38;30.50;30.20
12156;DHT22;6141;49.092;8.516;2023-08-20T09:04:06;30.60;27.70
12156;DHT22;6141;49.092;8.516;2023-08-20T09:06:44;30.50;28.30
12156;DHT22;6141;49.092;8.516;2023-08-20T09:09:16;30.50;28.30
12156;DHT22;6141;49.092;8.516;2023-08-20T09:11:44;30.50;28.70
12156;DHT22;6141;49.092;8.516;2023-08-20T09:14:21;30.80;28.60
12156;DHT22;6141;49.092;8.516;2023-08-20T09:16:54;30.80;27.10
12156;DHT22;6141;49.092;8.516;2023-08-20T09:19:22;30.80;27.40
12156;DHT22;6141;49.092;8.516;2023-08-20T09:21:50;30.80;28.80
12156;DHT22;6141;49.092;8.516;2023-08-20T09:24:32;30.80;28.20
12156;DHT22;6141;49.092;8.516;2023-08-20T09:27:03;30.70;29.50
12156;DHT22;6141;49.092;8.516;2023-08-20T09:29:32;30.70;29.10
12156;DHT22;6141;49.092;8.516;2023-08-20T09:32:01;30.90;29.30
12156;DHT22;6141;49.092;8.516;2023-08-20T09:34:37;31.20;28.90
12156;DHT22;6141;49.092;8.516;2023-08-20T09:37:09;31.30;28.20
12156;DHT22;6141;49.092;8.516;2023-08-20T09:39:40;31.50;26.30
12156;DHT22;6141;49.092;8.516;2023-08-20T09:42:08;31.60;26.00
12156;DHT22;6141;49.092;8.516;2023-08-20T09:44:38;31.70;24.60
12156;DHT22;6141;49.092;8.516;2023-08-20T09:47:07;31.60;26.70
12156;DHT22;6141;49.092;8.516;2023-08-20T09:49:39;31.40;26.40
12156;DHT22;6141;49.092;8.516;2023-08-20T09:52:09;31.30;26.20
12156;DHT22;6141;49.092;8.516;2023-08-20T09:54:52;31.40;26.70
12156;DHT22;6141;49.092;8.516;2023-08-20T09:57:27;31.50;24.80
12156;DHT22;6141;49.092;8.516;2023-08-20T09:59:58;31.80;24.70
12156;DHT22;6141;49.092;8.516;2023-08-20T10:02:26;31.70;25.20
12156;DHT22;6141;49.092;8.516;2023-08-20T10:04:55;31.70;25.80
12156;DHT22;6141;49.092;8.516;2023-08-20T10:07:23;31.80;26.10
12156;DHT22;6141;49.092;8.516;2023-08-20T10:09:54;31.90;24.70
12156;DHT22;6141;49.092;8.516;2023-08-20T10:12:24;31.90;24.90
12156;DHT22;6141;49.092;8.516;2023-08-20T10:14:52;31.90;25.30
12156;DHT22;6141;49.092;8.516;2023-08-20T10:17:22;32.00;25.20
12156;DHT22;6141;49.092;8.516;2023-08-20T10:19:51;32.30;23.70
12156;DHT22;6141;49.092;8.516;2023-08-20T10:22:19;32.20;24.70
12156;DHT22;6141;49.092;8.516;2023-08-20T10:24:51;32.30;24.90
12156;DHT22;6141;49.092;8.516;2023-08-20T10:27:27;31.80;24.80
12156;DHT22;6141;49.092;8.516;2023-08-20T10:29:58;31.60;26.80
12156;DHT22;6141;49.092;8.516;2023-08-20T10:32:47;31.90;24.70
12156;DHT22;6141;49.092;8.516;2023-08-20T10:35:16;32.30;26.00
12156;DHT22;6141;49.092;8.516;2023-08-20T10:38:01;32.30;23.90
12156;DHT22;6141;49.092;8.516;2023-08-20T10:40:57;32.70;23.50
12156;DHT22;6141;49.092;8.516;2023-08-20T10:43:33;32.60;23.20
12156;DHT22;6141;49.092;8.516;2023-08-20T10:46:14;32.60;21.90
12156;DHT22;6141;49.092;8.516;2023-08-20T10:48:46;32.30;22.40
12156;DHT22;6141;49.092;8.516;2023-08-20T10:51:15;32.40;22.80
12156;DHT22;6141;49.092;8.516;2023-08-20T10:53:50;32.50;22.80
12156;DHT22;6141;49.092;8.516;2023-08-20T10:56:44;32.60;23.20
12156;DHT22;6141;49.092;8.516;2023-08-20T10:59:20;32.50;22.50
12156;DHT22;6141;49.092;8.516;2023-08-20T11:01:49;32.40;23.50
12156;DHT22;6141;49.092;8.516;2023-08-20T11:04:19;32.50;23.60
12156;DHT22;6141;49.092;8.516;2023-08-20T11:06:51;32.80;23.70
12156;DHT22;6141;49.092;8.516;2023-08-20T11:09:21;32.90;22.10
12156;DHT22;6141;49.092;8.516;2023-08-20T11:11:50;33.10;22.20
12156;DHT22;6141;49.092;8.516;2023-08-20T11:14:20;33.20;21.50
12156;DHT22;6141;49.092;8.516;2023-08-20T11:16:51;33.40;21.70
12156;DHT22;6141;49.092;8.516;2023-08-20T11:19:22;33.50;22.50
12156;DHT22;6141;49.092;8.516;2023-08-20T11:21:51;33.60;19.20
12156;DHT22;6141;49.092;8.516;2023-08-20T11:24:19;33.20;20.50
12156;DHT22;6141;49.092;8.516;2023-08-20T11:26:48;33.20;21.70
12156;DHT22;6141;49.092;8.516;2023-08-20T11:29:16;33.30;20.80
12156;DHT22;6141;49.092;8.516;2023-08-20T11:31:50;33.50;19.10
12156;DHT22;6141;49.092;8.516;2023-08-20T11:34:18;33.40;22.40
12156;DHT22;6141;49.092;8.516;2023-08-20T11:36:46;33.40;22.40
12156;DHT22;6141;49.092;8.516;2023-08-20T11:39:14;33.50;21.20
12156;DHT22;6141;49.092;8.516;2023-08-20T11:41:43;33.60;19.80
12156;DHT22;6141;49.092;8.516;2023-08-20T11:44:19;33.70;19.50
12156;DHT22;6141;49.092;8.516;2023-08-20T11:46:49;33.70;17.40
12156;DHT22;6141;49.092;8.516;2023-08-20T11:49:17;33.50;17.40
12156;DHT22;6141;49.092;8.516;2023-08-20T11:51:47;33.40;19.70
12156;DHT22;6141;49.092;8.516;2023-08-20T11:54:17;33.70;18.60
12156;DHT22;6141;49.092;8.516;2023-08-20T11:56:46;33.80;19.70
12156;DHT22;6141;49.092;8.516;2023-08-20T11:59:16;33.90;19.30
12156;DHT22;6141;49.092;8.516;2023-08-20T12:01:50;34.10;20.70
12156;DHT22;6141;49.092;8.516;2023-08-20T12:04:19;34.30;19.50
12156;DHT22;6141;49.092;8.516;2023-08-20T12:07:01;34.50;17.00
12156;DHT22;6141;49.092;8.516;2023-08-20T12:09:31;34.70;17.00
12156;DHT22;6141;49.092;8.516;2023-08-20T12:11:59;34.80;15.90
12156;DHT22;6141;49.092;8.516;2023-08-20T12:14:29;34.80;15.80
12156;DHT22;6141;49.092;8.516;2023-08-20T12:16:58;34.80;15.80
12156;DHT22;6141;49.092;8.516;2023-08-20T12:19:27;34.70;16.50
12156;DHT22;6141;49.092;8.516;2023-08-20T12:21:55;34.70;15.30
12156;DHT22;6141;49.092;8.516;2023-08-20T12:24:23;34.50;15.60
12156;DHT22;6141;49.092;8.516;2023-08-20T12:26:52;34.40;13.60
12156;DHT22;6141;49.092;8.516;2023-08-20T12:29:21;34.30;14.60
12156;DHT22;6141;49.092;8.516;2023-08-20T12:31:49;34.40;17.50
12156;DHT22;6141;49.092;8.516;2023-08-20T12:34:19;34.60;16.80
12156;DHT22;6141;49.092;8.516;2023-08-20T12:36:48;34.60;15.70
12156;DHT22;6141;49.092;8.516;2023-08-20T12:39:16;34.60;17.70
12156;DHT22;6141;49.092;8.516;2023-08-20T12:41:45;34.70;14.60
12156;DHT22;6141;49.092;8.516;2023-08-20T12:44:13;34.80;15.40
12156;DHT22;6141;49.092;8.516;2023-08-20T12:46:41;34.80;14.60
12156;DHT22;6141;49.092;8.516;2023-08-20T12:49:09;34.70;14.60
12156;DHT22;6141;49.092;8.516;2023-08-20T12:51:39;34.70;15.40
12156;DHT22;6141;49.092;8.516;2023-08-20T12:54:07;34.60;16.50
12156;DHT22;6141;49.092;8.516;2023-08-20T12:56:35;34.70;14.50
12156;DHT22;6141;49.092;8.516;2023-08-20T12:59:03;34.70;15.80
12156;DHT22;6141;49.092;8.516;2023-08-20T13:01:31;34.80;16.20
12156;DHT22;6141;49.092;8.516;2023-08-20T13:04:00;34.70;14.90
12156;DHT22;6141;49.092;8.516;2023-08-20T13:06:29;34.60;16.40
12156;DHT22;6141;49.092;8.516;2023-08-20T13:08:59;34.70;17.70
12156;DHT22;6141;49.092;8.516;2023-08-20T13:11:28;34.50;15.90
12156;DHT22;6141;49.092;8.516;2023-08-20T13:13:58;34.20;15.00
12156;DHT22;6141;49.092;8.516;2023-08-20T13:16:26;34.40;15.50
12156;DHT22;6141;49.092;8.516;2023-08-20T13:18:56;34.50;13.30
12156;DHT22;6141;49.092;8.516;2023-08-20T13:21:24;34.80;14.00
12156;DHT22;6141;49.092;8.516;2023-08-20T13:23:52;35.10;14.70
12156;DHT22;6141;49.092;8.516;2023-08-20T13:26:22;35.30;12.50
12156;DHT22;6141;49.092;8.516;2023-08-20T13:28:50;34.90;11.70
12156;DHT22;6141;49.092;8.516;2023-08-20T13:31:18;34.80;12.20
12156;DHT22;6141;49.092;8.516;2023-08-20T13:33:47;34.90;12.20
12156;DHT22;6141;49.092;8.516;2023-08-20T13:36:16;35.20;12.40
12156;DHT22;6141;49.092;8.516;2023-08-20T13:38:44;35.00;12.30
12156;DHT22;6141;49.092;8.516;2023-08-20T13:41:12;35.20;11.40
12156;DHT22;6141;49.092;8.516;2023-08-20T13:43:42;35.40;12.90
12156;DHT22;6141;49.092;8.516;2023-08-20T13:46:10;35.30;12.50
12156;DHT22;6141;49.092;8.516;2023-08-20T13:48:38;35.30;9.80
12156;DHT22;6141;49.092;8.516;2023-08-20T13:51:06;35.10;12.30
12156;DHT22;6141;49.092;8.516;2023-08-20T13:53:34;35.20;13.20
12156;DHT22;6141;49.092;8.516;2023-08-20T13:56:02;35.40;12.50
12156;DHT22;6141;49.092;8.516;2023-08-20T13:58:31;35.20;11.30
12156;DHT22;6141;49.092;8.516;2023-08-20T14:01:00;35.20;12.60
12156;DHT22;6141;49.092;8.516;2023-08-20T14:03:28;35.00;11.40
12156;DHT22;6141;49.092;8.516;2023-08-20T14:05:56;35.20;11.60
12156;DHT22;6141;49.092;8.516;2023-08-20T14:08:24;35.10;12.30
12156;DHT22;6141;49.092;8.516;2023-08-20T14:10:52;35.10;12.30
12156;DHT22;6141;49.092;8.516;2023-08-20T14:13:20;35.10;13.30
12156;DHT22;6141;49.092;8.516;2023-08-20T14:15:49;35.10;14.00
12156;DHT22;6141;49.092;8.516;2023-08-20T14:18:18;34.90;14.80
12156;DHT22;6141;49.092;8.516;2023-08-20T14:20:46;35.00;17.10
12156;DHT22;6141;49.092;8.516;2023-08-20T14:23:14;35.00;12.30
12156;DHT22;6141;49.092;8.516;2023-08-20T14:25:44;35.20;12.00
12156;DHT22;6141;49.092;8.516;2023-08-20T14:28:12;35.30;11.70
12156;DHT22;6141;49.092;8.516;2023-08-20T14:30:40;35.40;12.50
12156;DHT22;6141;49.092;8.516;2023-08-20T14:33:08;35.50;12.80
12156;DHT22;6141;49.092;8.516;2023-08-20T14:35:37;35.70;12.70
12156;DHT22;6141;49.092;8.516;2023-08-20T14:38:06;35.80;12.70
12156;DHT22;6141;49.092;8.516;2023-08-20T14:40:37;35.90;12.80
12156;DHT22;6141;49.092;8.516;2023-08-20T14:43:06;35.80;12.80
12156;DHT22;6141;49.092;8.516;2023-08-20T14:45:35;35.80;12.70
12156;DHT22;6141;49.092;8.516;2023-08-20T14:48:03;36.00;10.70
12156;DHT22;6141;49.092;8.516;2023-08-20T14:50:32;35.80;12.50
12156;DHT22;6141;49.092;8.516;2023-08-20T14:53:01;35.40;12.10
12156;DHT22;6141;49.092;8.516;2023-08-20T14:55:29;35.40;12.50
12156;DHT22;6141;49.092;8.516;2023-08-20T14:57:58;35.30;12.70
12156;DHT22;6141;49.092;8.516;2023-08-20T15:00:26;35.40;12.50
12156;DHT22;6141;49.092;8.516;2023-08-20T15:02:54;35.20;9.80
12156;DHT22;6141;49.092;8.516;2023-08-20T15:05:22;35.00;10.60
12156;DHT22;6141;49.092;8.516;2023-08-20T15:07:51;34.80;10.20
12156;DHT22;6141;49.092;8.516;2023-08-20T15:10:20;34.70;12.20
12156;DHT22;6141;49.092;8.516;2023-08-20T15:12:48;34.70;12.10
12156;DHT22;6141;49.092;8.516;2023-08-20T15:15:16;34.90;12.20
12156;DHT22;6141;49.092;8.516;2023-08-20T15:17:44;34.90;10.80
12156;DHT22;6141;49.092;8.516;2023-08-20T15:20:12;34.80;12.10
12156;DHT22;6141;49.092;8.516;2023-08-20T15:22:42;34.90;12.30
12156;DHT22;6141;49.092;8.516;2023-08-20T15:25:10;34.70;11.20
12156;DHT22;6141;49.092;8.516;2023-08-20T15:27:40;34.70;10.80
12156;DHT22;6141;49.092;8.516;2023-08-20T15:30:08;34.90;10.60
12156;DHT22;6141;49.092;8.516;2023-08-20T15:32:36;35.00;11.10
12156;DHT22;6141;49.092;8.516;2023-08-20T15:35:07;35.10;9.50
12156;DHT22;6141;49.092;8.516;2023-08-20T15:37:35;35.00;10.20
12156;DHT22;6141;49.092;8.516;2023-08-20T15:40:05;34.90;11.20
12156;DHT22;6141;49.092;8.516;2023-08-20T15:42:40;34.90;9.60
12156;DHT22;6141;49.092;8.516;2023-08-20T15:45:10;34.90;10.40
12156;DHT22;6141;49.092;8.516;2023-08-20T15:47:38;34.70;12.10
12156;DHT22;6141;49.092;8.516;2023-08-20T15:50:07;35.00;11.60
12156;DHT22;6141;49.092;8.516;2023-08-20T15:52:35;34.90;12.00
12156;DHT22;6141;49.092;8.516;2023-08-20T15:55:04;34.80;11.60
12156;DHT22;6141;49.092;8.516;2023-08-20T15:57:32;35.00;10.70
12156;DHT22;6141;49.092;8.516;2023-08-20T16:00:03;35.00;10.60
12156;DHT22;6141;49.092;8.516;2023-08-20T16:02:31;35.10;9.90